Time;durP1;ratioP1;P1;durP2;ratioP2;P2;SDS_P1;SDS_P2;PMS_P1;PMS_P2;Temp;Humidity;BMP_temperature;BMP_pressure;BME280_temperature;BME280_humidity;BME280_pressure;Samples;Min_cycle;Max_cycle;Signal;HPM_P1;HPM_P2
2022/11/20 00:07:25;;;;;;;1.10;0.77;;;10.30;56.80;;;;;;21009893;28;20056;-61
2022/11/20 00:17:26;;;;;;;2.15;0.80;;;10.30;57.20;;;;;;21009069;28;20044;-60
2022/11/20 00:27:28;;;;;;;4.40;1.27;;;10.30;57.50;;;;;;21007377;28;20052;-60
2022/11/20 00:37:30;;;;;;;1.75;0.95;;;10.30;57.70;;;;;;21007199;28;20063;-60
2022/11/20 00:47:31;;;;;;;2.85;0.80;;;10.30;58.20;;;;;;21007540;28;20445;-61
2022/11/20 00:57:33;;;;;;;2.47;1.30;;;10.30;58.40;;;;;;21006396;28;20481;-61
2022/11/20 01:07:34;;;;;;;1.80;0.90;;;10.20;59.30;;;;;;21009204;28;20533;-60
2022/11/20 01:17:36;;;;;;;2.63;0.90;;;10.30;60.20;;;;;;21003704;28;20052;-61
2022/11/20 01:27:37;;;;;;;1.27;0.70;;;10.30;60.40;;;;;;21003528;28;20078;-62
2022/11/20 01:37:40;;;;;;;1.58;0.85;;;10.40;60.20;;;;;;21003865;28;20061;-62
2022/11/20 01:47:46;;;;;;;1.75;0.90;;;10.50;60.10;;;;;;21002575;28;20040;-61
2022/11/20 01:57:48;;;;;;;1.67;1.02;;;10.50;60.60;;;;;;21002694;28;20472;-62
2022/11/20 02:07:50;;;;;;;3.58;1.67;;;10.50;60.80;;;;;;20982552;28;20091;-61
2022/11/20 02:17:54;;;;;;;1.52;0.60;;;10.50;61.00;;;;;;21000425;28;20071;-61
2022/11/20 02:27:56;;;;;;;1.50;0.75;;;10.50;61.70;;;;;;20998314;28;20048;-63
2022/11/20 02:38:02;;;;;;;3.00;1.45;;;10.50;61.80;;;;;;20998168;28;20052;-61
2022/11/20 02:48:09;;;;;;;2.22;0.80;;;10.50;61.70;;;;;;20997731;28;20044;-62
2022/11/20 02:58:13;;;;;;;1.05;0.70;;;10.50;61.20;;;;;;20998200;28;20048;-62
2022/11/20 03:08:17;;;;;;;1.60;0.85;;;10.60;60.70;;;;;;20996253;28;20057;-61
2022/11/20 03:18:19;;;;;;;1.10;0.75;;;10.50;61.50;;;;;;20996067;28;20048;-62
2022/11/20 03:28:20;;;;;;;2.42;0.90;;;10.50;61.20;;;;;;20995715;28;20476;-62
2022/11/20 03:38:23;;;;;;;2.25;0.90;;;10.50;61.30;;;;;;20988088;28;20048;-60
2022/11/20 03:48:30;;;;;;;2.25;1.10;;;10.50;61.60;;;;;;21012970;28;20057;-62
2022/11/20 03:58:36;;;;;;;2.70;1.70;;;10.40;62.00;;;;;;21011377;28;20055;-61
2022/11/20 04:08:41;;;;;;;2.95;1.50;;;10.40;62.30;;;;;;21011690;28;20500;-62
2022/11/20 04:18:45;;;;;;;4.33;1.80;;;10.30;62.40;;;;;;21009456;28;20052;-63
2022/11/20 04:28:48;;;;;;;2.45;1.30;;;10.10;62.30;;;;;;21008507;28;20293;-62
2022/11/20 04:39:04;;;;;;;3.80;2.00;;;10.00;62.80;;;;;;20997586;28;20106;-62
2022/11/20 04:49:24;;;;;;;2.78;1.70;;;9.80;63.30;;;;;;21007325;28;20093;-61
2022/11/20 04:59:25;;;;;;;3.50;2.00;;;9.80;63.80;;;;;;21006443;28;20048;-59
2022/11/20 05:09:27;;;;;;;4.13;1.80;;;9.90;63.40;;;;;;20987431;28;20052;-60
2022/11/20 05:19:29;;;;;;;3.40;1.73;;;9.70;62.40;;;;;;21005299;28;20156;-62
2022/11/20 05:29:31;;;;;;;3.13;1.50;;;9.30;63.10;;;;;;21004130;28;20053;-60
2022/11/20 05:39:33;;;;;;;2.47;1.30;;;9.30;62.70;;;;;;21003513;28;20061;-61
2022/11/20 05:49:35;;;;;;;6.97;1.90;;;9.10;63.60;;;;;;21002144;28;20051;-62
2022/11/20 05:59:37;;;;;;;2.33;1.33;;;9.00;63.70;;;;;;21001312;28;20076;-62
2022/11/20 06:09:38;;;;;;;3.05;1.70;;;8.90;64.10;;;;;;21001840;28;20090;-62
2022/11/20 06:19:40;;;;;;;2.35;1.52;;;8.80;65.00;;;;;;21000054;28;20060;-61
2022/11/20 06:29:43;;;;;;;2.97;1.55;;;8.80;65.30;;;;;;20998837;28;20052;-63
2022/11/20 06:39:44;;;;;;;3.80;1.70;;;8.80;65.70;;;;;;20997929;28;20499;-62
2022/11/20 06:49:46;;;;;;;3.85;2.15;;;8.70;65.90;;;;;;20997749;28;20050;-60
2022/11/20 06:59:48;;;;;;;4.88;2.28;;;8.70;66.30;;;;;;20996782;28;20135;-61
2022/11/20 07:09:49;;;;;;;4.25;2.00;;;8.70;66.40;;;;;;20997039;28;20493;-62
2022/11/20 07:19:51;;;;;;;3.78;1.90;;;8.70;66.90;;;;;;20995697;28;20056;-61
2022/11/20 07:29:53;;;;;;;5.82;2.17;;;8.50;68.30;;;;;;20995321;28;20094;-61
2022/11/20 07:39:54;;;;;;;5.43;2.53;;;8.50;69.30;;;;;;20995913;28;20451;-60
2022/11/20 07:49:56;;;;;;;43.80;23.90;;;8.80;70.10;;;;;;20994821;28;20051;-62
2022/11/20 07:59:57;;;;;;;5.80;2.40;;;8.80;69.90;;;;;;20994426;28;20087;-61
2022/11/20 08:09:59;;;;;;;5.82;4.00;;;8.80;70.00;;;;;;20995414;28;20068;-62
2022/11/20 08:20:01;;;;;;;4.50;2.15;;;9.10;69.60;;;;;;20998187;28;20064;-62
2022/11/20 08:30:04;;;;;;;3.47;2.30;;;9.10;70.10;;;;;;21004863;28;20053;-62
2022/11/20 08:40:09;;;;;;;6.18;3.10;;;9.20;70.40;;;;;;21002953;28;20049;-63
2022/11/20 08:50:12;;;;;;;8.25;3.60;;;9.40;70.40;;;;;;21002464;28;20110;-61
2022/11/20 09:00:14;;;;;;;7.97;3.47;;;9.70;69.80;;;;;;21001106;28;20063;-64
2022/11/20 09:10:16;;;;;;;12.98;7.78;;;10.00;69.50;;;;;;20999941;28;20054;-62
2022/11/20 09:20:17;;;;;;;10.93;4.72;;;10.20;68.50;;;;;;21001468;28;20052;-62
2022/11/20 09:30:19;;;;;;;9.18;3.92;;;10.40;68.20;;;;;;20961044;28;1179900;-62
2022/11/20 09:40:31;;;;;;;6.75;3.17;;;10.70;68.00;;;;;;21002754;28;20057;-62
2022/11/20 09:50:41;;;;;;;6.15;4.38;;;11.10;68.20;;;;;;21002648;28;20048;-61
2022/11/20 10:00:43;;;;;;;5.63;2.80;;;11.40;68.20;;;;;;21001418;28;20044;-62
2022/11/20 10:11:03;;;;;;;5.38;2.70;;;11.70;68.50;;;;;;21000721;28;20049;-61
2022/11/20 10:21:17;;;;;;;5.38;1.90;;;12.20;67.50;;;;;;20983060;28;20083;-61
2022/11/20 10:31:37;;;;;;;6.57;2.20;;;12.50;67.20;;;;;;20998602;28;20096;-61
2022/11/20 10:41:41;;;;;;;3.58;2.15;;;13.00;66.70;;;;;;20998849;28;20052;-61
2022/11/20 10:52:19;;;;;;;5.37;2.00;;;13.10;66.50;;;;;;20997184;28;20047;-61
2022/11/20 11:02:23;;;;;;;3.38;1.80;;;13.30;66.70;;;;;;20660124;28;20085;-62
2022/11/20 11:12:27;;;;;;;3.25;1.63;;;13.60;66.70;;;;;;20658739;28;20050;-60
2022/11/20 11:22:32;;;;;;;3.60;1.60;;;13.80;66.60;;;;;;20658832;28;20053;-61
2022/11/20 11:32:34;;;;;;;2.53;1.20;;;14.10;66.60;;;;;;20726704;28;20051;-61
2022/11/20 11:42:41;;;;;;;2.53;1.20;;;14.50;66.20;;;;;;20995561;28;20053;-60
2022/11/20 11:53:04;;;;;;;2.53;1.50;;;14.70;65.20;;;;;;20995520;28;20476;-59
2022/11/20 12:03:15;;;;;;;1.75;1.13;;;14.80;64.50;;;;;;21011532;28;20053;-60
2022/11/20 12:13:25;;;;;;;2.45;1.00;;;15.10;64.20;;;;;;21009966;28;20054;-61
2022/11/20 12:23:44;;;;;;;2.08;1.02;;;15.20;63.90;;;;;;21009389;28;20052;-60
2022/11/20 12:34:13;;;;;;;4.82;1.23;;;15.40;63.40;;;;;;21008276;28;20060;-59
2022/11/20 12:55:44;;;;;;;2.15;0.60;;;15.60;62.50;;;;;;21006548;28;20055;-59
2022/11/20 13:06:00;;;;;;;1.65;0.80;;;15.70;61.70;;;;;;20668108;28;20042;-60
2022/11/20 13:16:10;;;;;;;2.90;1.20;;;15.90;61.20;;;;;;20666350;28;20093;-60
2022/11/20 13:26:23;;;;;;;5.78;4.57;;;16.10;60.70;;;;;;20666262;28;20466;-60
2022/11/20 13:36:27;;;;;;;1.92;1.02;;;16.20;60.10;;;;;;20851423;28;20055;-60
2022/11/20 13:46:43;;;;;;;2.53;1.20;;;16.20;60.30;;;;;;21003206;28;20394;-60
2022/11/20 13:56:59;;;;;;;14.73;6.47;;;16.20;60.00;;;;;;21002397;28;20378;-60
2022/11/20 14:07:05;;;;;;;8.00;6.22;;;16.40;59.00;;;;;;21000753;28;20116;-61
2022/11/20 14:17:20;;;;;;;6.45;2.78;;;16.40;59.30;;;;;;20981467;28;20163;-60
2022/11/20 14:27:22;;;;;;;1.50;0.90;;;16.40;59.90;;;;;;20998224;28;20052;-62
2022/11/20 14:37:33;;;;;;;2.13;1.08;;;16.60;59.70;;;;;;20998216;28;20055;-61
2022/11/20 14:47:35;;;;;;;7.85;1.63;;;16.40;60.70;;;;;;20997790;28;20049;-61
2022/11/20 14:57:37;;;;;;;2.38;1.30;;;16.30;60.40;;;;;;20978781;28;20141;-61
2022/11/20 15:07:45;;;;;;;3.25;1.05;;;16.30;59.90;;;;;;20997346;28;20431;-60
2022/11/20 15:17:47;;;;;;;6.10;1.52;;;16.30;59.70;;;;;;20995611;28;20052;-59
2022/11/20 15:27:56;;;;;;;1.95;1.30;;;16.30;59.30;;;;;;20995180;28;20520;-61
2022/11/20 15:37:58;;;;;;;4.40;2.05;;;16.30;59.40;;;;;;20994524;28;20052;-61
2022/11/20 15:48:01;;;;;;;4.60;1.40;;;16.30;59.40;;;;;;20995123;28;20492;-61
2022/11/20 15:58:02;;;;;;;2.72;1.45;;;16.20;59.40;;;;;;20993684;28;20082;-61
2022/11/20 16:08:05;;;;;;;3.95;1.50;;;16.20;58.40;;;;;;20993546;28;20074;-60
2022/11/20 16:18:10;;;;;;;3.15;1.30;;;16.10;58.70;;;;;;20994315;28;20048;-60
2022/11/20 16:28:15;;;;;;;4.50;1.80;;;16.00;59.30;;;;;;20992555;28;20071;-60
2022/11/20 16:38:16;;;;;;;3.15;2.17;;;15.90;59.70;;;;;;20992277;28;20100;-61
2022/11/20 16:48:20;;;;;;;4.50;2.60;;;15.70;60.10;;;;;;21007025;28;20492;-60
2022/11/20 16:58:22;;;;;;;5.53;3.53;;;15.50;61.40;;;;;;21007365;28;20453;-60
2022/11/20 17:08:26;;;;;;;8.07;4.05;;;15.40;62.30;;;;;;21006499;28;20056;-61
2022/11/20 17:18:29;;;;;;;5.28;2.67;;;15.30;63.20;;;;;;20986955;28;20404;-60
2022/11/20 17:28:31;;;;;;;4.55;2.33;;;15.10;64.30;;;;;;21002803;28;20056;-61
2022/11/20 17:38:34;;;;;;;10.27;5.93;;;14.80;65.90;;;;;;21003180;28;20053;-61
2022/11/20 17:48:36;;;;;;;4.28;2.85;;;14.60;67.50;;;;;;21002766;28;20123;-60
2022/11/20 17:58:38;;;;;;;5.47;2.50;;;14.40;68.30;;;;;;21000391;28;20049;-61
2022/11/20 18:08:40;;;;;;;6.40;2.58;;;14.40;68.50;;;;;;21001776;28;20075;-61
2022/11/20 18:18:43;;;;;;;5.75;2.70;;;14.20;69.00;;;;;;21002079;28;20048;-61
2022/11/20 18:28:45;;;;;;;5.45;3.33;;;14.20;69.50;;;;;;21001153;28;20463;-61
2022/11/20 18:38:49;;;;;;;7.82;3.25;;;14.10;69.90;;;;;;20981531;28;20400;-60
2022/11/20 18:48:51;;;;;;;3.80;2.73;;;13.90;70.30;;;;;;20999280;28;20479;-60
2022/11/20 18:58:53;;;;;;;3.63;2.50;;;13.80;70.40;;;;;;20998522;28;20059;-61
2022/11/20 19:08:55;;;;;;;4.75;3.22;;;13.70;70.70;;;;;;20996104;28;20561;-61
2022/11/20 19:19:00;;;;;;;4.53;2.60;;;13.70;70.80;;;;;;20995171;28;20052;-60
2022/11/20 19:29:03;;;;;;;10.25;5.18;;;13.70;71.20;;;;;;20994073;28;20056;-60
2022/11/20 19:39:08;;;;;;;7.28;4.25;;;13.70;71.20;;;;;;20995690;28;20052;-60
2022/11/20 19:49:12;;;;;;;6.65;3.53;;;13.60;71.80;;;;;;20994957;28;20052;-60
2022/11/20 19:59:14;;;;;;;4.37;3.33;;;13.30;73.20;;;;;;20994135;28;20041;-60
2022/11/20 20:09:15;;;;;;;34.63;10.02;;;13.30;74.00;;;;;;20993929;28;20049;-61
2022/11/20 20:19:17;;;;;;;5.30;4.00;;;13.20;75.00;;;;;;21000109;28;20504;-61
2022/11/20 20:29:21;;;;;;;7.93;4.40;;;13.20;75.50;;;;;;21007064;28;20048;-61
2022/11/20 20:39:23;;;;;;;8.88;5.45;;;13.20;76.40;;;;;;21008194;28;20053;-62
2022/11/20 20:49:25;;;;;;;6.88;4.10;;;13.20;76.70;;;;;;21007655;28;20440;-60
2022/11/20 20:59:26;;;;;;;6.32;4.18;;;13.20;76.80;;;;;;21005051;28;20489;-60
2022/11/20 21:09:28;;;;;;;4.82;3.17;;;13.20;77.20;;;;;;21004828;28;20127;-59
2022/11/20 21:19:31;;;;;;;4.00;2.83;;;13.30;77.00;;;;;;21004242;28;20131;-61
2022/11/20 21:29:33;;;;;;;5.47;2.90;;;13.30;77.50;;;;;;21002414;28;20122;-60
2022/11/20 21:39:49;;;;;;;5.47;2.15;;;13.50;77.40;;;;;;21003537;28;20055;-60
2022/11/20 21:49:51;;;;;;;2.97;2.08;;;13.50;77.70;;;;;;21003135;28;20052;-62
2022/11/20 21:59:55;;;;;;;3.53;2.43;;;13.40;78.20;;;;;;21001453;28;20048;-60
2022/11/20 22:09:56;;;;;;;3.67;2.40;;;13.50;78.40;;;;;;21000414;28;20044;-62
2022/11/20 22:19:59;;;;;;;6.35;2.75;;;13.50;78.50;;;;;;20999365;28;20049;-60
2022/11/20 22:30:00;;;;;;;2.60;1.85;;;13.40;79.40;;;;;;20998769;28;20456;-58
2022/11/20 22:40:02;;;;;;;3.30;1.58;;;13.30;79.80;;;;;;20997830;28;20056;-58
2022/11/20 22:50:04;;;;;;;1.98;1.40;;;13.40;79.90;;;;;;20998472;28;20040;-58
2022/11/20 23:00:07;;;;;;;3.30;1.70;;;13.40;79.90;;;;;;20995690;28;20048;-58
2022/11/20 23:10:08;;;;;;;1.90;1.48;;;13.40;79.80;;;;;;20995971;28;20052;-59
2022/11/20 23:20:10;;;;;;;1.85;1.20;;;13.40;80.00;;;;;;20995973;28;20059;-59
2022/11/20 23:30:12;;;;;;;2.20;1.30;;;13.30;80.40;;;;;;20994240;28;20052;-62
2022/11/20 23:40:13;;;;;;;2.08;1.13;;;13.30;80.70;;;;;;20994528;28;20048;-60
2022/11/20 23:50:15;;;;;;;1.50;1.00;;;13.40;80.30;;;;;;20996428;28;20048;-58
